sensor_id;sensor_type;location;lat;lon;timestamp;pressure;altitude;pressure_sealevel;temperature;humidity
77019;BME280;66044;53.142;17.962;2023-11-19T00:00:59;101689.25;;;-0.26;78.61
77019;BME280;66044;53.142;17.962;2023-11-19T00:03:46;101689.14;;;-0.26;78.72
77019;BME280;66044;53.142;17.962;2023-11-19T00:06:12;101693.49;;;-0.27;78.56
77019;BME280;66044;53.142;17.962;2023-11-19T00:08:39;101687.93;;;-0.28;78.82
77019;BME280;66044;53.142;17.962;2023-11-19T00:11:06;101676.54;;;-0.29;78.93
77019;BME280;66044;53.142;17.962;2023-11-19T00:13:32;101668.49;;;-0.31;78.99
77019;BME280;66044;53.142;17.962;2023-11-19T00:15:58;101666.75;;;-0.33;78.91
77019;BME280;66044;53.142;17.962;2023-11-19T00:18:25;101661.98;;;-0.35;78.83
77019;BME280;66044;53.142;17.962;2023-11-19T00:20:51;101663.96;;;-0.37;78.61
77019;BME280;66044;53.142;17.962;2023-11-19T00:23:18;101663.45;;;-0.39;78.77
77019;BME280;66044;53.142;17.962;2023-11-19T00:25:44;101658.52;;;-0.41;78.87
77019;BME280;66044;53.142;17.962;2023-11-19T00:28:11;101659.86;;;-0.42;78.74
77019;BME280;66044;53.142;17.962;2023-11-19T00:30:37;101663.11;;;-0.42;78.77
77019;BME280;66044;53.142;17.962;2023-11-19T00:33:03;101659.00;;;-0.44;78.74
77019;BME280;66044;53.142;17.962;2023-11-19T00:35:31;101658.88;;;-0.45;78.73
77019;BME280;66044;53.142;17.962;2023-11-19T00:37:58;101653.70;;;-0.46;79.00
77019;BME280;66044;53.142;17.962;2023-11-19T00:40:24;101648.98;;;-0.46;78.97
77019;BME280;66044;53.142;17.962;2023-11-19T00:42:51;101643.94;;;-0.48;78.77
77019;BME280;66044;53.142;17.962;2023-11-19T00:45:18;101637.98;;;-0.49;79.00
77019;BME280;66044;53.142;17.962;2023-11-19T00:47:45;101633.24;;;-0.51;78.95
77019;BME280;66044;53.142;17.962;2023-11-19T00:50:11;101622.10;;;-0.51;78.92
77019;BME280;66044;53.142;17.962;2023-11-19T00:52:39;101617.71;;;-0.51;78.84
77019;BME280;66044;53.142;17.962;2023-11-19T00:55:06;101612.58;;;-0.52;79.08
77019;BME280;66044;53.142;17.962;2023-11-19T00:57:33;101614.80;;;-0.53;78.98
77019;BME280;66044;53.142;17.962;2023-11-19T00:59:59;101617.36;;;-0.53;78.92
77019;BME280;66044;53.142;17.962;2023-11-19T01:02:26;101615.64;;;-0.55;78.99
77019;BME280;66044;53.142;17.962;2023-11-19T01:04:52;101611.15;;;-0.57;78.93
77019;BME280;66044;53.142;17.962;2023-11-19T01:07:19;101598.64;;;-0.61;79.41
77019;BME280;66044;53.142;17.962;2023-11-19T01:09:45;101592.36;;;-0.59;79.11
77019;BME280;66044;53.142;17.962;2023-11-19T01:12:12;101583.36;;;-0.61;79.18
77019;BME280;66044;53.142;17.962;2023-11-19T01:14:38;101578.98;;;-0.63;79.23
77019;BME280;66044;53.142;17.962;2023-11-19T01:17:05;101573.23;;;-0.63;79.33
77019;BME280;66044;53.142;17.962;2023-11-19T01:19:32;101571.55;;;-0.65;79.29
77019;BME280;66044;53.142;17.962;2023-11-19T01:21:58;101571.61;;;-0.66;79.42
77019;BME280;66044;53.142;17.962;2023-11-19T01:27:12;101570.59;;;-0.70;79.24
77019;BME280;66044;53.142;17.962;2023-11-19T01:29:39;101571.54;;;-0.70;79.49
77019;BME280;66044;53.142;17.962;2023-11-19T01:32:06;101564.19;;;-0.71;79.09
77019;BME280;66044;53.142;17.962;2023-11-19T01:34:32;101571.09;;;-0.71;79.58
77019;BME280;66044;53.142;17.962;2023-11-19T01:36:59;101567.40;;;-0.71;79.41
77019;BME280;66044;53.142;17.962;2023-11-19T01:39:25;101558.13;;;-0.72;79.52
77019;BME280;66044;53.142;17.962;2023-11-19T01:41:52;101551.66;;;-0.74;79.51
77019;BME280;66044;53.142;17.962;2023-11-19T01:44:18;101546.83;;;-0.74;79.41
77019;BME280;66044;53.142;17.962;2023-11-19T01:46:46;101537.42;;;-0.76;79.39
77019;BME280;66044;53.142;17.962;2023-11-19T01:49:17;101520.25;;;-0.78;79.64
77019;BME280;66044;53.142;17.962;2023-11-19T01:51:45;101516.25;;;-0.79;79.80
77019;BME280;66044;53.142;17.962;2023-11-19T01:54:14;101508.20;;;-0.81;79.84
77019;BME280;66044;53.142;17.962;2023-11-19T01:56:42;101503.27;;;-0.82;79.85
77019;BME280;66044;53.142;17.962;2023-11-19T01:59:09;101495.96;;;-0.83;79.95
77019;BME280;66044;53.142;17.962;2023-11-19T02:01:37;101494.02;;;-0.83;80.08
77019;BME280;66044;53.142;17.962;2023-11-19T02:04:07;101489.25;;;-0.84;80.10
77019;BME280;66044;53.142;17.962;2023-11-19T02:06:37;101489.70;;;-0.85;80.53
77019;BME280;66044;53.142;17.962;2023-11-19T02:09:08;101486.90;;;-0.85;80.31
77019;BME280;66044;53.142;17.962;2023-11-19T02:11:35;101485.88;;;-0.86;80.29
77019;BME280;66044;53.142;17.962;2023-11-19T02:14:01;101487.45;;;-0.87;80.28
77019;BME280;66044;53.142;17.962;2023-11-19T02:16:30;101488.76;;;-0.87;80.25
77019;BME280;66044;53.142;17.962;2023-11-19T02:18:56;101488.95;;;-0.86;80.37
77019;BME280;66044;53.142;17.962;2023-11-19T02:21:23;101474.66;;;-0.86;80.15
77019;BME280;66044;53.142;17.962;2023-11-19T02:23:49;101459.43;;;-0.87;80.41
77019;BME280;66044;53.142;17.962;2023-11-19T02:26:28;101450.80;;;-0.88;80.35
77019;BME280;66044;53.142;17.962;2023-11-19T02:28:55;101441.13;;;-0.89;80.37
77019;BME280;66044;53.142;17.962;2023-11-19T02:31:23;101437.14;;;-0.91;80.60
77019;BME280;66044;53.142;17.962;2023-11-19T02:33:49;101438.84;;;-0.91;80.63
77019;BME280;66044;53.142;17.962;2023-11-19T02:36:16;101439.63;;;-0.91;80.55
77019;BME280;66044;53.142;17.962;2023-11-19T02:38:43;101435.00;;;-0.93;80.67
77019;BME280;66044;53.142;17.962;2023-11-19T02:41:09;101428.84;;;-0.94;80.94
77019;BME280;66044;53.142;17.962;2023-11-19T02:43:37;101424.08;;;-0.95;80.89
77019;BME280;66044;53.142;17.962;2023-11-19T02:46:05;101417.36;;;-0.96;80.93
77019;BME280;66044;53.142;17.962;2023-11-19T02:48:35;101409.65;;;-0.96;80.70
77019;BME280;66044;53.142;17.962;2023-11-19T02:51:02;101402.24;;;-0.97;81.07
77019;BME280;66044;53.142;17.962;2023-11-19T02:53:36;101396.70;;;-0.98;81.24
77019;BME280;66044;53.142;17.962;2023-11-19T02:56:06;101394.14;;;-0.97;81.44
77019;BME280;66044;53.142;17.962;2023-11-19T02:58:51;101393.53;;;-0.95;81.22
77019;BME280;66044;53.142;17.962;2023-11-19T03:01:23;101392.65;;;-0.93;81.32
77019;BME280;66044;53.142;17.962;2023-11-19T03:04:00;101388.84;;;-0.90;81.09
77019;BME280;66044;53.142;17.962;2023-11-19T03:06:27;101380.02;;;-0.86;81.36
77019;BME280;66044;53.142;17.962;2023-11-19T03:08:55;101378.20;;;-0.84;81.35
77019;BME280;66044;53.142;17.962;2023-11-19T03:11:22;101376.88;;;-0.82;81.22
77019;BME280;66044;53.142;17.962;2023-11-19T03:13:48;101367.70;;;-0.80;81.15
77019;BME280;66044;53.142;17.962;2023-11-19T03:16:15;101360.48;;;-0.78;81.08
77019;BME280;66044;53.142;17.962;2023-11-19T03:18:43;101353.98;;;-0.76;81.12
77019;BME280;66044;53.142;17.962;2023-11-19T03:21:09;101344.45;;;-0.74;81.20
77019;BME280;66044;53.142;17.962;2023-11-19T03:23:36;101337.50;;;-0.72;80.77
77019;BME280;66044;53.142;17.962;2023-11-19T03:26:03;101325.76;;;-0.70;81.01
77019;BME280;66044;53.142;17.962;2023-11-19T03:28:31;101318.91;;;-0.69;81.00
77019;BME280;66044;53.142;17.962;2023-11-19T03:30:58;101314.73;;;-0.67;80.97
77019;BME280;66044;53.142;17.962;2023-11-19T03:33:25;101300.42;;;-0.67;80.99
77019;BME280;66044;53.142;17.962;2023-11-19T03:35:54;101292.63;;;-0.67;80.86
77019;BME280;66044;53.142;17.962;2023-11-19T03:38:23;101288.61;;;-0.68;80.80
77019;BME280;66044;53.142;17.962;2023-11-19T03:40:51;101287.45;;;-0.68;80.88
77019;BME280;66044;53.142;17.962;2023-11-19T03:43:17;101277.84;;;-0.69;80.84
77019;BME280;66044;53.142;17.962;2023-11-19T03:45:45;101275.05;;;-0.69;80.65
77019;BME280;66044;53.142;17.962;2023-11-19T03:48:13;101269.73;;;-0.68;81.10
77019;BME280;66044;53.142;17.962;2023-11-19T03:50:42;101274.86;;;-0.67;80.79
77019;BME280;66044;53.142;17.962;2023-11-19T03:53:09;101274.80;;;-0.68;80.59
77019;BME280;66044;53.142;17.962;2023-11-19T03:55:36;101275.44;;;-0.67;80.62
77019;BME280;66044;53.142;17.962;2023-11-19T03:58:02;101272.20;;;-0.69;80.79
77019;BME280;66044;53.142;17.962;2023-11-19T04:00:28;101276.35;;;-0.69;80.67
77019;BME280;66044;53.142;17.962;2023-11-19T04:02:55;101271.03;;;-0.69;80.63
77019;BME280;66044;53.142;17.962;2023-11-19T04:05:21;101261.03;;;-0.68;80.67
77019;BME280;66044;53.142;17.962;2023-11-19T04:07:48;101253.30;;;-0.66;80.58
77019;BME280;66044;53.142;17.962;2023-11-19T04:10:14;101254.73;;;-0.63;80.37
77019;BME280;66044;53.142;17.962;2023-11-19T04:12:42;101254.46;;;-0.61;80.32
77019;BME280;66044;53.142;17.962;2023-11-19T04:15:10;101251.38;;;-0.62;80.25
77019;BME280;66044;53.142;17.962;2023-11-19T04:17:37;101248.50;;;-0.61;80.08
77019;BME280;66044;53.142;17.962;2023-11-19T04:20:05;101243.23;;;-0.60;80.14
77019;BME280;66044;53.142;17.962;2023-11-19T04:22:32;101235.12;;;-0.59;79.75
77019;BME280;66044;53.142;17.962;2023-11-19T04:24:58;101227.22;;;-0.56;80.15
77019;BME280;66044;53.142;17.962;2023-11-19T04:27:24;101215.25;;;-0.52;80.15
77019;BME280;66044;53.142;17.962;2023-11-19T04:29:51;101213.90;;;-0.50;79.91
77019;BME280;66044;53.142;17.962;2023-11-19T04:32:18;101213.78;;;-0.48;79.98
77019;BME280;66044;53.142;17.962;2023-11-19T04:34:45;101216.25;;;-0.45;80.18
77019;BME280;66044;53.142;17.962;2023-11-19T04:37:12;101214.84;;;-0.42;80.05
77019;BME280;66044;53.142;17.962;2023-11-19T04:39:38;101208.50;;;-0.38;79.99
77019;BME280;66044;53.142;17.962;2023-11-19T04:42:05;101201.08;;;-0.37;80.04
77019;BME280;66044;53.142;17.962;2023-11-19T04:44:32;101193.16;;;-0.37;79.76
77019;BME280;66044;53.142;17.962;2023-11-19T04:46:59;101189.64;;;-0.36;79.71
77019;BME280;66044;53.142;17.962;2023-11-19T04:49:25;101182.36;;;-0.35;79.80
77019;BME280;66044;53.142;17.962;2023-11-19T04:51:53;101173.85;;;-0.36;79.87
77019;BME280;66044;53.142;17.962;2023-11-19T04:54:20;101163.98;;;-0.36;79.68
77019;BME280;66044;53.142;17.962;2023-11-19T04:56:46;101158.55;;;-0.36;79.67
77019;BME280;66044;53.142;17.962;2023-11-19T04:59:16;101157.48;;;-0.36;79.40
77019;BME280;66044;53.142;17.962;2023-11-19T05:01:46;101151.36;;;-0.36;79.45
77019;BME280;66044;53.142;17.962;2023-11-19T05:04:14;101140.35;;;-0.35;79.54
77019;BME280;66044;53.142;17.962;2023-11-19T05:06:41;101137.95;;;-0.34;79.61
77019;BME280;66044;53.142;17.962;2023-11-19T05:09:07;101132.27;;;-0.33;79.65
77019;BME280;66044;53.142;17.962;2023-11-19T05:11:34;101133.85;;;-0.33;79.55
77019;BME280;66044;53.142;17.962;2023-11-19T05:14:04;101137.48;;;-0.34;79.52
77019;BME280;66044;53.142;17.962;2023-11-19T05:16:31;101137.25;;;-0.35;79.47
77019;BME280;66044;53.142;17.962;2023-11-19T05:18:58;101127.65;;;-0.34;79.72
77019;BME280;66044;53.142;17.962;2023-11-19T05:21:24;101123.04;;;-0.33;79.61
77019;BME280;66044;53.142;17.962;2023-11-19T05:23:51;101117.36;;;-0.31;79.65
77019;BME280;66044;53.142;17.962;2023-11-19T05:26:19;101107.29;;;-0.31;79.54
77019;BME280;66044;53.142;17.962;2023-11-19T05:28:46;101099.05;;;-0.31;79.47
77019;BME280;66044;53.142;17.962;2023-11-19T05:31:12;101097.22;;;-0.31;79.67
77019;BME280;66044;53.142;17.962;2023-11-19T05:33:38;101095.32;;;-0.29;79.68
77019;BME280;66044;53.142;17.962;2023-11-19T05:36:06;101096.01;;;-0.29;79.72
77019;BME280;66044;53.142;17.962;2023-11-19T05:38:36;101090.62;;;-0.29;79.65
77019;BME280;66044;53.142;17.962;2023-11-19T05:41:03;101092.73;;;-0.29;79.86
77019;BME280;66044;53.142;17.962;2023-11-19T05:43:31;101089.89;;;-0.28;80.01
77019;BME280;66044;53.142;17.962;2023-11-19T05:45:58;101090.12;;;-0.27;79.90
77019;BME280;66044;53.142;17.962;2023-11-19T05:48:26;101091.23;;;-0.27;79.92
77019;BME280;66044;53.142;17.962;2023-11-19T05:50:53;101085.95;;;-0.27;79.82
77019;BME280;66044;53.142;17.962;2023-11-19T05:53:21;101083.61;;;-0.25;80.08
77019;BME280;66044;53.142;17.962;2023-11-19T05:55:47;101078.31;;;-0.23;79.87
77019;BME280;66044;53.142;17.962;2023-11-19T05:58:24;101071.35;;;-0.21;79.98
77019;BME280;66044;53.142;17.962;2023-11-19T06:00:52;101069.80;;;-0.19;80.00
77019;BME280;66044;53.142;17.962;2023-11-19T06:03:19;101067.64;;;-0.19;79.99
77019;BME280;66044;53.142;17.962;2023-11-19T06:05:51;101064.70;;;-0.18;79.73
77019;BME280;66044;53.142;17.962;2023-11-19T06:08:17;101062.48;;;-0.17;80.09
77019;BME280;66044;53.142;17.962;2023-11-19T06:10:44;101058.23;;;-0.16;79.93
77019;BME280;66044;53.142;17.962;2023-11-19T06:13:13;101050.48;;;-0.15;79.85
77019;BME280;66044;53.142;17.962;2023-11-19T06:15:42;101036.34;;;-0.14;79.91
77019;BME280;66044;53.142;17.962;2023-11-19T06:18:09;101023.42;;;-0.12;79.88
77019;BME280;66044;53.142;17.962;2023-11-19T06:20:38;101015.08;;;-0.09;79.96
77019;BME280;66044;53.142;17.962;2023-11-19T06:23:04;101014.25;;;-0.06;79.62
77019;BME280;66044;53.142;17.962;2023-11-19T06:25:31;101014.23;;;-0.04;79.89
77019;BME280;66044;53.142;17.962;2023-11-19T06:27:57;101008.70;;;-0.04;79.68
77019;BME280;66044;53.142;17.962;2023-11-19T06:30:24;101005.90;;;-0.04;79.96
77019;BME280;66044;53.142;17.962;2023-11-19T06:32:51;101002.67;;;-0.01;79.58
77019;BME280;66044;53.142;17.962;2023-11-19T06:35:17;101000.77;;;0.02;80.00
77019;BME280;66044;53.142;17.962;2023-11-19T06:37:44;100993.15;;;0.03;79.86
77019;BME280;66044;53.142;17.962;2023-11-19T06:40:11;100988.73;;;0.05;80.10
77019;BME280;66044;53.142;17.962;2023-11-19T06:42:38;100984.00;;;0.08;79.57
77019;BME280;66044;53.142;17.962;2023-11-19T06:45:07;100984.78;;;0.08;80.01
77019;BME280;66044;53.142;17.962;2023-11-19T06:47:33;100986.91;;;0.09;79.80
77019;BME280;66044;53.142;17.962;2023-11-19T06:50:00;100983.64;;;0.10;79.82
77019;BME280;66044;53.142;17.962;2023-11-19T06:52:26;100975.37;;;0.11;79.92
77019;BME280;66044;53.142;17.962;2023-11-19T06:54:52;100967.15;;;0.13;79.67
77019;BME280;66044;53.142;17.962;2023-11-19T06:57:19;100969.23;;;0.15;79.86
77019;BME280;66044;53.142;17.962;2023-11-19T06:59:46;100963.64;;;0.17;79.49
77019;BME280;66044;53.142;17.962;2023-11-19T07:02:13;100958.50;;;0.19;79.44
77019;BME280;66044;53.142;17.962;2023-11-19T07:04:40;100951.19;;;0.23;79.51
77019;BME280;66044;53.142;17.962;2023-11-19T07:07:07;100946.27;;;0.27;79.46
77019;BME280;66044;53.142;17.962;2023-11-19T07:09:33;100942.45;;;0.31;79.37
77019;BME280;66044;53.142;17.962;2023-11-19T07:12:00;100938.42;;;0.35;79.32
77019;BME280;66044;53.142;17.962;2023-11-19T07:14:27;100937.39;;;0.39;79.25
77019;BME280;66044;53.142;17.962;2023-11-19T07:16:55;100934.27;;;0.44;79.18
77019;BME280;66044;53.142;17.962;2023-11-19T07:19:22;100926.02;;;0.44;79.13
77019;BME280;66044;53.142;17.962;2023-11-19T07:21:50;100923.45;;;0.45;79.04
77019;BME280;66044;53.142;17.962;2023-11-19T07:24:16;100924.14;;;0.47;79.04
77019;BME280;66044;53.142;17.962;2023-11-19T07:26:44;100928.21;;;0.48;78.65
77019;BME280;66044;53.142;17.962;2023-11-19T07:29:10;100924.98;;;0.46;78.56
77019;BME280;66044;53.142;17.962;2023-11-19T07:31:37;100919.80;;;0.47;78.49
77019;BME280;66044;53.142;17.962;2023-11-19T07:34:05;100913.73;;;0.48;78.45
77019;BME280;66044;53.142;17.962;2023-11-19T07:36:32;100913.92;;;0.50;78.24
77019;BME280;66044;53.142;17.962;2023-11-19T07:38:59;100913.67;;;0.54;78.22
77019;BME280;66044;53.142;17.962;2023-11-19T07:41:25;100908.31;;;0.57;78.11
77019;BME280;66044;53.142;17.962;2023-11-19T07:43:52;100902.73;;;0.59;78.14
77019;BME280;66044;53.142;17.962;2023-11-19T07:46:19;100898.56;;;0.62;77.92
77019;BME280;66044;53.142;17.962;2023-11-19T07:48:46;100890.14;;;0.65;77.91
77019;BME280;66044;53.142;17.962;2023-11-19T07:51:15;100886.25;;;0.67;77.65
77019;BME280;66044;53.142;17.962;2023-11-19T07:53:41;100882.00;;;0.68;77.61
77019;BME280;66044;53.142;17.962;2023-11-19T07:56:08;100877.78;;;0.69;77.59
77019;BME280;66044;53.142;17.962;2023-11-19T07:58:35;100869.23;;;0.70;77.62
77019;BME280;66044;53.142;17.962;2023-11-19T08:01:03;100863.42;;;0.72;77.39
77019;BME280;66044;53.142;17.962;2023-11-19T08:03:29;100864.45;;;0.73;77.63
77019;BME280;66044;53.142;17.962;2023-11-19T08:05:56;100853.67;;;0.73;77.35
77019;BME280;66044;53.142;17.962;2023-11-19T08:08:25;100844.41;;;0.73;77.31
77019;BME280;66044;53.142;17.962;2023-11-19T08:10:52;100841.17;;;0.72;76.96
77019;BME280;66044;53.142;17.962;2023-11-19T08:13:19;100836.95;;;0.72;77.33
77019;BME280;66044;53.142;17.962;2023-11-19T08:15:46;100837.80;;;0.75;77.53
77019;BME280;66044;53.142;17.962;2023-11-19T08:18:13;100838.61;;;0.78;77.44
77019;BME280;66044;53.142;17.962;2023-11-19T08:20:39;100833.02;;;0.79;77.37
77019;BME280;66044;53.142;17.962;2023-11-19T08:23:07;100825.87;;;0.78;77.31
77019;BME280;66044;53.142;17.962;2023-11-19T08:25:34;100827.38;;;0.80;77.18
77019;BME280;66044;53.142;17.962;2023-11-19T08:28:01;100821.19;;;0.80;77.09
77019;BME280;66044;53.142;17.962;2023-11-19T08:30:30;100812.72;;;0.80;77.10
77019;BME280;66044;53.142;17.962;2023-11-19T08:32:56;100813.09;;;0.82;77.14
77019;BME280;66044;53.142;17.962;2023-11-19T08:35:24;100809.08;;;0.83;76.90
77019;BME280;66044;53.142;17.962;2023-11-19T08:37:51;100809.77;;;0.84;77.03
77019;BME280;66044;53.142;17.962;2023-11-19T08:40:18;100804.70;;;0.85;77.03
77019;BME280;66044;53.142;17.962;2023-11-19T08:42:46;100799.46;;;0.85;76.79
77019;BME280;66044;53.142;17.962;2023-11-19T08:45:13;100791.36;;;0.83;76.78
77019;BME280;66044;53.142;17.962;2023-11-19T08:47:39;100782.86;;;0.83;76.83
77019;BME280;66044;53.142;17.962;2023-11-19T08:50:07;100773.66;;;0.85;77.10
77019;BME280;66044;53.142;17.962;2023-11-19T08:52:34;100766.17;;;0.87;76.95
77019;BME280;66044;53.142;17.962;2023-11-19T08:55:04;100765.11;;;0.90;77.07
77019;BME280;66044;53.142;17.962;2023-11-19T08:57:31;100758.16;;;0.94;76.81
77019;BME280;66044;53.142;17.962;2023-11-19T08:59:59;100757.32;;;0.95;76.77
77019;BME280;66044;53.142;17.962;2023-11-19T09:02:25;100755.79;;;0.98;76.88
77019;BME280;66044;53.142;17.962;2023-11-19T09:04:52;100755.92;;;1.04;76.84
77019;BME280;66044;53.142;17.962;2023-11-19T09:07:19;100753.16;;;1.07;76.55
77019;BME280;66044;53.142;17.962;2023-11-19T09:09:45;100751.55;;;1.10;76.66
77019;BME280;66044;53.142;17.962;2023-11-19T09:12:12;100747.89;;;1.15;76.57
77019;BME280;66044;53.142;17.962;2023-11-19T09:14:40;100746.27;;;1.18;76.68
77019;BME280;66044;53.142;17.962;2023-11-19T09:17:08;100742.84;;;1.18;76.48
77019;BME280;66044;53.142;17.962;2023-11-19T09:19:35;100737.59;;;1.16;76.77
77019;BME280;66044;53.142;17.962;2023-11-19T09:22:03;100724.35;;;1.15;76.78
77019;BME280;66044;53.142;17.962;2023-11-19T09:24:30;100722.52;;;1.16;76.68
77019;BME280;66044;53.142;17.962;2023-11-19T09:26:56;100708.65;;;1.18;76.90
77019;BME280;66044;53.142;17.962;2023-11-19T09:29:23;100706.96;;;1.22;76.90
77019;BME280;66044;53.142;17.962;2023-11-19T09:31:50;100692.95;;;1.27;77.13
77019;BME280;66044;53.142;17.962;2023-11-19T09:34:16;100692.11;;;1.33;77.00
77019;BME280;66044;53.142;17.962;2023-11-19T09:36:43;100685.46;;;1.34;76.90
77019;BME280;66044;53.142;17.962;2023-11-19T09:39:11;100680.78;;;1.37;76.94
77019;BME280;66044;53.142;17.962;2023-11-19T09:41:37;100669.79;;;1.40;77.03
77019;BME280;66044;53.142;17.962;2023-11-19T09:44:04;100668.47;;;1.42;76.81
77019;BME280;66044;53.142;17.962;2023-11-19T09:46:31;100659.63;;;1.41;76.94
77019;BME280;66044;53.142;17.962;2023-11-19T09:48:58;100657.30;;;1.42;77.09
77019;BME280;66044;53.142;17.962;2023-11-19T09:51:25;100648.77;;;1.42;76.93
77019;BME280;66044;53.142;17.962;2023-11-19T09:53:52;100644.17;;;1.41;76.94
77019;BME280;66044;53.142;17.962;2023-11-19T09:56:19;100641.36;;;1.39;77.17
77019;BME280;66044;53.142;17.962;2023-11-19T09:58:46;100636.44;;;1.39;77.04
77019;BME280;66044;53.142;17.962;2023-11-19T10:01:13;100627.75;;;1.43;77.26
77019;BME280;66044;53.142;17.962;2023-11-19T10:03:40;100619.55;;;1.47;77.14
77019;BME280;66044;53.142;17.962;2023-11-19T10:06:07;100618.88;;;1.49;77.05
77019;BME280;66044;53.142;17.962;2023-11-19T10:08:38;100616.55;;;1.48;76.90
77019;BME280;66044;53.142;17.962;2023-11-19T10:11:08;100617.80;;;1.47;76.94
77019;BME280;66044;53.142;17.962;2023-11-19T10:13:38;100612.14;;;1.45;77.06
77019;BME280;66044;53.142;17.962;2023-11-19T10:16:09;100602.45;;;1.46;77.22
77019;BME280;66044;53.142;17.962;2023-11-19T10:18:37;100599.43;;;1.51;77.15
77019;BME280;66044;53.142;17.962;2023-11-19T10:21:05;100598.91;;;1.56;77.08
77019;BME280;66044;53.142;17.962;2023-11-19T10:23:52;100599.86;;;1.57;76.75
77019;BME280;66044;53.142;17.962;2023-11-19T10:26:20;100592.93;;;1.55;76.78
77019;BME280;66044;53.142;17.962;2023-11-19T10:28:47;100589.16;;;1.55;77.06
77019;BME280;66044;53.142;17.962;2023-11-19T10:31:14;100585.69;;;1.59;77.00
77019;BME280;66044;53.142;17.962;2023-11-19T10:33:41;100581.58;;;1.60;76.96
77019;BME280;66044;53.142;17.962;2023-11-19T10:36:08;100579.24;;;1.61;76.89
77019;BME280;66044;53.142;17.962;2023-11-19T10:38:36;100573.42;;;1.61;76.95
77019;BME280;66044;53.142;17.962;2023-11-19T10:41:02;100568.61;;;1.61;76.95
77019;BME280;66044;53.142;17.962;2023-11-19T10:43:31;100568.83;;;1.63;77.01
77019;BME280;66044;53.142;17.962;2023-11-19T10:46:11;100564.36;;;1.65;77.00
77019;BME280;66044;53.142;17.962;2023-11-19T10:48:44;100562.28;;;1.67;76.97
77019;BME280;66044;53.142;17.962;2023-11-19T10:51:13;100559.72;;;1.65;76.89
77019;BME280;66044;53.142;17.962;2023-11-19T10:54:03;100552.34;;;1.66;76.99
77019;BME280;66044;53.142;17.962;2023-11-19T10:56:33;100549.73;;;1.68;77.02
77019;BME280;66044;53.142;17.962;2023-11-19T10:59:06;100551.54;;;1.69;76.93
77019;BME280;66044;53.142;17.962;2023-11-19T11:01:43;100546.23;;;1.68;77.04
77019;BME280;66044;53.142;17.962;2023-11-19T11:04:13;100538.16;;;1.66;77.34
77019;BME280;66044;53.142;17.962;2023-11-19T11:06:41;100533.77;;;1.59;77.41
77019;BME280;66044;53.142;17.962;2023-11-19T11:09:09;100525.59;;;1.55;77.77
77019;BME280;66044;53.142;17.962;2023-11-19T11:11:40;100520.08;;;1.51;77.98
77019;BME280;66044;53.142;17.962;2023-11-19T11:14:07;100517.52;;;1.46;78.25
77019;BME280;66044;53.142;17.962;2023-11-19T11:16:37;100511.28;;;1.39;78.46
77019;BME280;66044;53.142;17.962;2023-11-19T11:19:09;100504.33;;;1.35;78.76
77019;BME280;66044;53.142;17.962;2023-11-19T11:21:38;100496.16;;;1.32;79.00
77019;BME280;66044;53.142;17.962;2023-11-19T11:24:20;100492.52;;;1.28;79.20
77019;BME280;66044;53.142;17.962;2023-11-19T11:27:00;100479.98;;;1.26;79.39
77019;BME280;66044;53.142;17.962;2023-11-19T11:29:39;100475.77;;;1.22;79.74
77019;BME280;66044;53.142;17.962;2023-11-19T11:32:21;100468.90;;;1.17;80.06
77019;BME280;66044;53.142;17.962;2023-11-19T11:38:15;100453.89;;;1.11;80.33
77019;BME280;66044;53.142;17.962;2023-11-19T11:43:48;100434.97;;;1.00;80.99
77019;BME280;66044;53.142;17.962;2023-11-19T11:49:05;100419.96;;;0.92;81.66
77019;BME280;66044;53.142;17.962;2023-11-19T11:54:25;100410.63;;;0.88;81.93
77019;BME280;66044;53.142;17.962;2023-11-19T11:57:12;100408.40;;;0.83;82.29
77019;BME280;66044;53.142;17.962;2023-11-19T12:02:09;100397.84;;;0.79;82.53
77019;BME280;66044;53.142;17.962;2023-11-19T12:04:36;100394.45;;;0.77;82.62
77019;BME280;66044;53.142;17.962;2023-11-19T12:07:23;100389.50;;;0.74;82.57
77019;BME280;66044;53.142;17.962;2023-11-19T12:10:05;100389.41;;;0.74;82.69
77019;BME280;66044;53.142;17.962;2023-11-19T12:12:33;100387.91;;;0.75;82.93
77019;BME280;66044;53.142;17.962;2023-11-19T12:15:06;100375.02;;;0.72;83.26
77019;BME280;66044;53.142;17.962;2023-11-19T12:20:00;100350.92;;;0.67;83.68
77019;BME280;66044;53.142;17.962;2023-11-19T12:22:27;100341.63;;;0.64;83.65
77019;BME280;66044;53.142;17.962;2023-11-19T12:24:54;100323.71;;;0.63;83.89
77019;BME280;66044;53.142;17.962;2023-11-19T12:27:22;100330.05;;;0.64;83.66
77019;BME280;66044;53.142;17.962;2023-11-19T12:29:49;100334.34;;;0.64;83.93
77019;BME280;66044;53.142;17.962;2023-11-19T12:32:16;100325.67;;;0.64;83.93
77019;BME280;66044;53.142;17.962;2023-11-19T12:34:42;100310.23;;;0.62;83.98
77019;BME280;66044;53.142;17.962;2023-11-19T12:37:10;100319.48;;;0.60;84.33
77019;BME280;66044;53.142;17.962;2023-11-19T12:39:37;100337.05;;;0.59;84.15
77019;BME280;66044;53.142;17.962;2023-11-19T12:42:03;100362.41;;;0.59;84.32
77019;BME280;66044;53.142;17.962;2023-11-19T12:44:30;100364.94;;;0.61;84.25
77019;BME280;66044;53.142;17.962;2023-11-19T12:47:03;100345.85;;;0.63;84.26
77019;BME280;66044;53.142;17.962;2023-11-19T12:49:30;100333.85;;;0.63;84.34
77019;BME280;66044;53.142;17.962;2023-11-19T12:51:57;100325.51;;;0.65;84.47
77019;BME280;66044;53.142;17.962;2023-11-19T12:54:36;100322.87;;;0.67;84.23
77019;BME280;66044;53.142;17.962;2023-11-19T12:57:04;100319.89;;;0.68;84.49
77019;BME280;66044;53.142;17.962;2023-11-19T12:59:55;100318.25;;;0.72;84.69
77019;BME280;66044;53.142;17.962;2023-11-19T13:02:23;100315.92;;;0.74;84.47
77019;BME280;66044;53.142;17.962;2023-11-19T13:04:50;100314.94;;;0.77;84.49
77019;BME280;66044;53.142;17.962;2023-11-19T13:07:20;100313.73;;;0.80;84.34
77019;BME280;66044;53.142;17.962;2023-11-19T13:09:47;100307.17;;;0.80;84.49